AirNav   Everest Fuels
 
 1033 users online  

0MI8 Oakwood Southshore Medical Center Heliport
Trenton, Michigan, USA

GOING TO TRENTON?


FAA INFORMATION EFFECTIVE 18 JUNE 2020

Location

FAA Identifier: 0MI8
Lat/Long: 42-06-57.5100N 083-12-52.8100W
42-06.958500N 083-12.880167W
42.1159750,-83.2146694
(estimated)
Elevation: 589 ft. / 180 m (estimated)
From city: 3 miles NE of TRENTON, MI
Time zone: UTC -4 (UTC -5 during Standard Time)
Zip code: 48183

Heliport Operations

Heliport use: Private use. Permission required prior to landing
Activation date: 10/2016
Control tower: no
ARTCC: CLEVELAND CENTER
FSS: LANSING FLIGHT SERVICE STATION
Attendance: 
Segmented circle: no

Heliport Communications

WX AWOS-3 at ONZ (2.6 nm SE): 119.675 (734-692-9686)
WX ASOS at DTW (8 nm NW): 133.675 (734-955-5015)
WX AWOS-3 at TTF (14 nm SW): 119.075 (734-384-0259)
WX ASOS at YIP (16 nm NW): PHONE 734-961-6843
WX ASOS at DET (20 nm NE): PHONE 313-371-9696

Nearby radio navigation aids

VOR radial/distance  VOR name  Freq  Var
DXOr137/8.9DETROIT VOR/DME113.4006W
CRLr072/11.6CARLETON VOR/DME115.7003W
SVMr139/24.3SALEM VORTAC114.3003W

 
NDB name  Hdg/Dist  Freq  Var  ID
GROSSE ILE295/2.941907WRYS .-. -.-- ...
TECUMSEH087/30.323906WTCU - -.-. ..-
PORT CLINTON344/39.042307WPCW .--. -.-. .--

Heliport Services

Runway Information

Helipad H1

Dimensions: 48 x 48 ft. / 15 x 15 m
Surface: concrete
Traffic pattern: leftleft

Heliport Ownership and Management from official FAA records

Ownership: Privately-owned
Owner: OAKWOOD SOUTHSHORE MEDICAL CENTER
5450 FORT ST.
TRENTON, MI 48183
Phone 784-671-3817
Manager: MATT GEORGE
5450 FORT ST.
TRENTON, MI 48183
Phone 734-6713817

Additional Remarks

FOR CD CTC CLEVELAND ARTCC AT 440-774-0490.

Instrument Procedures

There are no published instrument procedures at 0MI8.

Some nearby airports with instrument procedures:

KONZ - Grosse Ile Municipal Airport (3 nm SE)
KDTW - Detroit Metropolitan Wayne County Airport (8 nm NW)
KTTF - Custer Airport (14 nm SW)
KYIP - Willow Run Airport (16 nm NW)
1D2 - Canton-Plymouth-Mettetal Airport (18 nm NW)
KDET - Coleman A Young Municipal Airport (20 nm NE)
 
Loc | Ops | Rwys | IFR | FBO | Links
Com | Nav | Svcs | Stats | Notes
Aerial photo
No photo
 
Airport distance calculator
Flying to Oakwood Southshore Medical Center Heliport? Find the distance to fly.

From to 0MI8

Sunrise and sunset
Times for 12-Jul-2020
 Local
(UTC-4)
 Zulu
(UTC)
Morning civil twilight05:3609:36
Sunrise06:1010:10
Sunset21:0801:08
Evening civil twilight21:4101:41

Current date and time
Zulu (UTC)  12-Jul-2020 18:36:50
Local (UTC-4)  12-Jul-2020 14:36:50
 
METAR
KONZ 
3nm E 
121815Z AUTO 30006KT 10SM SCT048 BKN070 BKN080 27/17 A2979 RMK AO2 T02740167
KDTW 
9nm NW 
121753Z 31009KT 10SM BKN045 BKN070 27/16 A2981 RMK AO2 SLP089 T02670156 10272 20211 58004
KTTF 
14nm SW 
121815Z AUTO 29010G16KT 10SM SCT045 28/15 A2980 RMK AO2 T02760151
CXHA 
15nm E 
121800Z AUTO 29004KT 27/18 RMK AO1 SLP083 T02710184 58005
CYQG 
15nm NE 
121800Z AUTO 33007KT 260V350 9SM SCT049 BKN065 27/16 A2980 RMK SLP088 DENSITY ALT 2200FT
KYIP 
16nm NW 
121753Z 34010G15KT 10SM FEW043 BKN070 29/16 A2982 RMK AO2 SLP088 T02940156 10294 20217 58003
KDET 
19nm NE 
121753Z 33010G16KT 10SM BKN060 27/15 A2980 RMK AO2 SLP087 T02720150 10272 20222 58003
TAF
KDTW 
9nm NW 
121734Z 1218/1324 33007KT P6SM BKN050 FM130200 02006KT P6SM SCT080 FM130900 35005KT P6SM SCT250 FM131500 35006KT P6SM BKN050
CYQG 
15nm NE 
121739Z 1218/1318 29010KT P6SM SCT220 FM122000 30010KT P6SM SCT060 TEMPO 1220/1306 BKN060 BECMG 1300/1302 04008KT FM131500 02007KT P6SM SCT040 RMK FCST BASED ON AUTO OBS. NXT FCST BY 130000Z
KYIP 
16nm NW 
121734Z 1218/1318 33007KT P6SM BKN045 FM130200 02006KT P6SM SCT080 FM130900 35005KT P6SM SCT250 FM131500 35006KT P6SM BKN050
KDET 
19nm NE 
121734Z 1218/1318 33007KT P6SM BKN050 FM130200 02006KT P6SM SCT080 FM130900 35005KT P6SM SCT250 FM131500 35006KT P6SM BKN050
NOTAMs
Click for the latest NOTAMs
NOTAMs are issued by the DoD/FAA and will open in a separate window not controlled by AirNav.

 

 
 

Would you like to see your business listed on this page?

 If your business provides an interesting product or service to pilots, flight crews, aircraft, or users of the Oakwood Southshore Medical Center Heliport, you should consider listing it here.  To start the listing process, click on the button below
 
Add a business
 

Other Pages about Oakwood Southshore Medical Center Heliport

Update a link
 
Copyright © AirNav, LLC. All rights reserved. Privacy Policy  Contact